createdAt,value
2023-05-06T00:01:03.951Z,1019.64
2023-05-06T00:02:08.532Z,1019.67
2023-05-06T00:03:12.929Z,1019.65
2023-05-06T00:04:18.543Z,1019.63
2023-05-06T00:05:22.324Z,1019.71
2023-05-06T00:06:26.921Z,1019.64
2023-05-06T00:07:31.020Z,1019.67
2023-05-06T00:08:35.354Z,1019.61
2023-05-06T00:09:39.710Z,1019.59
2023-05-06T00:10:44.276Z,1019.61
2023-05-06T00:11:48.896Z,1019.60
2023-05-06T00:12:53.033Z,1019.63
2023-05-06T00:13:57.057Z,1019.61
2023-05-06T00:15:01.643Z,1019.63
2023-05-06T00:16:05.772Z,1019.61
2023-05-06T00:17:10.360Z,1019.62
2023-05-06T00:18:14.716Z,1019.58
2023-05-06T00:19:19.282Z,1019.64
2023-05-06T00:20:25.850Z,1019.58
2023-05-06T00:21:25.497Z,1019.57
2023-05-06T00:22:29.822Z,1019.58
2023-05-06T00:23:33.660Z,1019.53
2023-05-06T00:24:38.262Z,1019.55
2023-05-06T00:25:42.616Z,1019.53
2023-05-06T00:26:46.936Z,1019.56
2023-05-06T00:27:51.018Z,1019.54
2023-05-06T00:28:55.359Z,1019.58
2023-05-06T00:29:59.949Z,1019.55
2023-05-06T00:31:04.567Z,1019.56
2023-05-06T00:32:08.627Z,1019.55
2023-05-06T00:35:55.260Z,1019.58
2023-05-06T00:37:00.603Z,1019.61
2023-05-06T00:38:04.948Z,1019.60
2023-05-06T00:39:09.041Z,1019.65
2023-05-06T00:40:13.661Z,1019.64
2023-05-06T00:41:18.028Z,1019.58
2023-05-06T00:42:22.564Z,1019.66
2023-05-06T00:43:26.915Z,1019.62
2023-05-06T00:44:30.719Z,1019.65
2023-05-06T00:45:35.360Z,1019.63
2023-05-06T00:46:39.654Z,1019.64
2023-05-06T00:47:44.102Z,1019.62
2023-05-06T00:48:48.125Z,1019.64
2023-05-06T00:49:52.714Z,1019.63
2023-05-06T00:50:56.796Z,1019.66
2023-05-06T00:52:01.384Z,1019.68
2023-05-06T00:53:05.766Z,1019.68
2023-05-06T00:54:10.077Z,1019.65
2023-05-06T00:55:14.424Z,1019.64
2023-05-06T00:56:20.565Z,1019.62
2023-05-06T00:57:23.101Z,1019.62
2023-05-06T00:58:27.156Z,1019.63
2023-05-06T00:59:31.769Z,1019.61
2023-05-06T01:00:36.108Z,1019.59
2023-05-06T01:01:40.747Z,1019.55
2023-05-06T01:02:47.602Z,1019.58
2023-05-06T01:03:49.450Z,1019.59
2023-05-06T01:04:53.232Z,1019.59
2023-05-06T01:05:53.288Z,1019.60
2023-05-06T01:06:57.616Z,1019.58
2023-05-06T01:08:02.222Z,1019.61
2023-05-06T01:09:06.564Z,1019.63
2023-05-06T01:10:10.703Z,1019.57
2023-05-06T01:11:16.050Z,1019.57
2023-05-06T01:12:19.675Z,1019.59
2023-05-06T01:13:24.249Z,1019.60
2023-05-06T01:14:28.074Z,1019.60
2023-05-06T01:15:32.677Z,1019.55
2023-05-06T01:16:37.051Z,1019.59
2023-05-06T01:17:41.150Z,1019.59
2023-05-06T01:18:45.684Z,1019.60
2023-05-06T01:19:50.126Z,1019.61
2023-05-06T01:20:54.107Z,1019.62
2023-05-06T01:21:58.952Z,1019.60
2023-05-06T01:23:02.802Z,1019.59
2023-05-06T01:24:07.397Z,1019.62
2023-05-06T01:25:11.644Z,1019.57
2023-05-06T01:26:15.801Z,1019.56
2023-05-06T01:27:20.411Z,1019.57
2023-05-06T01:28:24.474Z,1019.53
2023-05-06T01:29:29.076Z,1019.55
2023-05-06T01:30:33.676Z,1019.53
2023-05-06T01:31:38.111Z,1019.51
2023-05-06T01:32:42.131Z,1019.55
2023-05-06T01:33:46.425Z,1019.53
2023-05-06T01:34:50.518Z,1019.55
2023-05-06T01:35:50.640Z,1019.55
2023-05-06T01:36:55.233Z,1019.60
2023-05-06T01:37:59.552Z,1019.61
2023-05-06T01:39:03.638Z,1019.61
2023-05-06T01:40:08.271Z,1019.58
2023-05-06T01:41:12.593Z,1019.55
2023-05-06T01:42:17.191Z,1019.58
2023-05-06T01:43:21.517Z,1019.54
2023-05-06T01:44:25.329Z,1019.56
2023-05-06T01:45:29.687Z,1019.55
2023-05-06T01:46:34.360Z,1019.55
2023-05-06T01:47:38.377Z,1019.57
2023-05-06T01:48:42.694Z,1019.54
2023-05-06T01:49:47.016Z,1019.59
2023-05-06T01:50:51.810Z,1019.59
2023-05-06T01:51:56.249Z,1019.59
2023-05-06T01:53:00.365Z,1019.63
2023-05-06T01:54:04.392Z,1019.61
2023-05-06T01:55:08.968Z,1019.64
2023-05-06T01:56:13.326Z,1019.62
2023-05-06T01:57:17.706Z,1019.62
2023-05-06T01:58:22.045Z,1019.65
2023-05-06T01:59:26.108Z,1019.65
2023-05-06T02:00:30.960Z,1019.60
2023-05-06T02:01:35.076Z,1019.64
2023-05-06T02:02:39.191Z,1019.64
2023-05-06T02:03:43.768Z,1019.64
2023-05-06T02:04:48.079Z,1019.68
2023-05-06T02:05:48.200Z,1019.65
2023-05-06T02:06:52.654Z,1019.64
2023-05-06T02:07:56.618Z,1019.63
2023-05-06T02:09:01.196Z,1019.69
2023-05-06T02:10:05.541Z,1019.69
2023-05-06T02:11:09.659Z,1019.68
2023-05-06T02:12:14.527Z,1019.70
2023-05-06T02:13:18.506Z,1019.72
2023-05-06T02:14:22.768Z,1019.71
2023-05-06T02:15:27.291Z,1019.70
2023-05-06T02:16:31.720Z,1019.71
2023-05-06T02:17:36.040Z,1019.69
2023-05-06T02:18:40.051Z,1019.68
2023-05-06T02:19:44.397Z,1019.62
2023-05-06T02:20:48.993Z,1019.65
2023-05-06T02:21:53.326Z,1019.63
2023-05-06T02:22:57.503Z,1019.59
2023-05-06T02:24:01.745Z,1019.56
2023-05-06T02:25:06.505Z,1019.58
2023-05-06T02:26:10.688Z,1019.58
2023-05-06T02:27:15.009Z,1019.58
2023-05-06T02:28:19.088Z,1019.54
2023-05-06T02:29:23.677Z,1019.51
2023-05-06T02:30:28.307Z,1019.53
2023-05-06T02:31:32.397Z,1019.53
2023-05-06T02:32:36.534Z,1019.62
2023-05-06T02:33:40.866Z,1019.62
2023-05-06T02:34:45.209Z,1019.67
2023-05-06T02:35:45.322Z,1019.72
2023-05-06T02:36:49.908Z,1019.72
2023-05-06T02:37:53.991Z,1019.72
2023-05-06T02:38:58.482Z,1019.73
2023-05-06T02:40:02.700Z,1019.80
2023-05-06T02:41:07.294Z,1019.79
2023-05-06T02:42:11.624Z,1019.76
2023-05-06T02:43:15.966Z,1019.76
2023-05-06T02:44:20.030Z,1019.77
2023-05-06T02:45:24.657Z,1019.72
2023-05-06T02:46:28.996Z,1019.74
2023-05-06T02:47:33.114Z,1019.76
2023-05-06T02:48:37.639Z,1019.78
2023-05-06T02:49:41.990Z,1019.79
2023-05-06T02:50:46.336Z,1019.85
2023-05-06T02:51:50.684Z,1019.83
2023-05-06T02:52:55.002Z,1019.76
2023-05-06T02:53:59.479Z,1019.80
2023-05-06T02:55:03.665Z,1019.78
2023-05-06T02:56:07.931Z,1019.77
2023-05-06T02:57:12.303Z,1019.80
2023-05-06T02:58:16.625Z,1019.83
2023-05-06T02:59:21.461Z,1019.81
2023-05-06T03:00:25.558Z,1019.76
2023-05-06T03:01:29.911Z,1019.78
2023-05-06T03:02:34.051Z,1019.81
2023-05-06T03:03:38.347Z,1019.86
2023-05-06T03:04:42.662Z,1019.77
2023-05-06T03:05:43.050Z,1019.83
2023-05-06T03:06:47.117Z,1019.89
2023-05-06T03:07:51.737Z,1019.90
2023-05-06T03:08:56.075Z,1019.88
2023-05-06T03:10:00.170Z,1019.88
2023-05-06T03:11:06.270Z,1019.90
2023-05-06T03:12:09.169Z,1019.87
2023-05-06T03:13:13.166Z,1019.92
2023-05-06T03:14:17.743Z,1019.91
2023-05-06T03:15:22.065Z,1019.94
2023-05-06T03:16:26.520Z,1019.88
2023-05-06T03:17:30.505Z,1019.88
2023-05-06T03:18:35.116Z,1019.88
2023-05-06T03:19:39.715Z,1019.92
2023-05-06T03:20:43.998Z,1019.96
2023-05-06T03:21:47.893Z,1019.92
2023-05-06T03:22:52.175Z,1019.91
2023-05-06T03:23:56.812Z,1019.93
2023-05-06T03:25:01.201Z,1019.96
2023-05-06T03:26:05.500Z,1019.96
2023-05-06T03:27:09.707Z,1020.00
2023-05-06T03:28:14.154Z,1020.00
2023-05-06T03:29:18.746Z,1020.03
2023-05-06T03:30:23.141Z,1020.02
2023-05-06T03:31:27.240Z,1019.99
2023-05-06T03:32:31.547Z,1020.06
2023-05-06T03:33:35.639Z,1020.05
2023-05-06T03:34:40.211Z,1020.05
2023-05-06T03:35:40.171Z,1020.03
2023-05-06T03:36:44.773Z,1020.06
2023-05-06T03:37:49.103Z,1020.02
2023-05-06T03:38:53.439Z,1019.98
2023-05-06T03:39:57.792Z,1020.02
2023-05-06T03:41:02.110Z,1020.01
2023-05-06T03:42:09.203Z,1020.07
2023-05-06T03:43:10.897Z,1020.08
2023-05-06T03:44:15.132Z,1020.04
2023-05-06T03:45:19.472Z,1020.04
2023-05-06T03:46:23.607Z,1020.06
2023-05-06T03:47:28.183Z,1020.10
2023-05-06T03:48:32.502Z,1020.10
2023-05-06T03:49:37.060Z,1020.13
2023-05-06T03:50:41.433Z,1020.10
2023-05-06T03:51:45.533Z,1020.11
2023-05-06T03:52:49.590Z,1020.16
2023-05-06T03:53:54.917Z,1020.16
2023-05-06T03:54:58.314Z,1020.14
2023-05-06T03:56:02.869Z,1020.13
2023-05-06T03:57:06.958Z,1020.13
2023-05-06T03:58:11.564Z,1020.14
2023-05-06T03:59:16.308Z,1020.16
2023-05-06T04:00:20.487Z,1020.14
2023-05-06T04:01:24.311Z,1020.12
2023-05-06T04:02:29.056Z,1020.06
2023-05-06T04:03:33.036Z,1020.12
2023-05-06T04:04:37.321Z,1020.13
2023-05-06T04:05:37.526Z,1020.13
2023-05-06T04:06:41.852Z,1020.14
2023-05-06T04:07:46.214Z,1020.17
2023-05-06T04:08:50.551Z,1020.19
2023-05-06T04:09:55.409Z,1020.19
2023-05-06T04:10:59.483Z,1020.25
2023-05-06T04:12:03.554Z,1020.21
2023-05-06T04:13:07.918Z,1020.29
2023-05-06T04:14:12.234Z,1020.24
2023-05-06T04:15:16.859Z,1020.26
2023-05-06T04:16:21.210Z,1020.25
2023-05-06T04:17:25.533Z,1020.25
2023-05-06T04:18:29.825Z,1020.20
2023-05-06T04:19:34.177Z,1020.25
2023-05-06T04:20:38.564Z,1020.21
2023-05-06T04:21:42.862Z,1020.25
2023-05-06T04:22:47.162Z,1020.28
2023-05-06T04:23:51.592Z,1020.29
2023-05-06T04:24:55.630Z,1020.31
2023-05-06T04:26:00.204Z,1020.29
2023-05-06T04:27:04.557Z,1020.39
2023-05-06T04:28:09.175Z,1020.37
2023-05-06T04:29:13.486Z,1020.31
2023-05-06T04:30:17.580Z,1020.35
2023-05-06T04:31:21.762Z,1020.33
2023-05-06T04:32:26.310Z,1020.38
2023-05-06T04:33:30.375Z,1020.36
2023-05-06T04:34:34.711Z,1020.35
2023-05-06T04:35:35.180Z,1020.35
2023-05-06T04:36:40.666Z,1020.35
2023-05-06T04:37:43.683Z,1020.37
2023-05-06T04:38:48.169Z,1020.41
2023-05-06T04:39:52.566Z,1020.44
2023-05-06T04:40:56.862Z,1020.47
2023-05-06T04:42:01.187Z,1020.51
2023-05-06T04:43:05.531Z,1020.45
2023-05-06T04:44:09.879Z,1020.45
2023-05-06T04:45:13.976Z,1020.44
2023-05-06T04:46:18.393Z,1020.48
2023-05-06T04:47:22.852Z,1020.49
2023-05-06T04:48:27.550Z,1020.50
2023-05-06T04:49:31.589Z,1020.47
2023-05-06T04:50:35.943Z,1020.47
2023-05-06T04:51:40.011Z,1020.48
2023-05-06T04:52:44.381Z,1020.50
2023-05-06T04:53:48.703Z,1020.52
2023-05-06T04:54:53.301Z,1020.52
2023-05-06T04:55:57.643Z,1020.52
2023-05-06T04:57:01.965Z,1020.57
2023-05-06T04:58:06.564Z,1020.55
2023-05-06T04:59:10.939Z,1020.58
2023-05-06T05:00:15.008Z,1020.60
2023-05-06T05:01:19.119Z,1020.61
2023-05-06T05:02:23.771Z,1020.56
2023-05-06T05:03:28.111Z,1020.52
2023-05-06T05:04:32.116Z,1020.57
2023-05-06T05:05:32.514Z,1020.61
2023-05-06T05:06:36.588Z,1020.57
2023-05-06T05:07:41.191Z,1020.58
2023-05-06T05:08:45.535Z,1020.60
2023-05-06T05:09:50.109Z,1020.63
2023-05-06T05:10:54.229Z,1020.66
2023-05-06T05:11:58.573Z,1020.66
2023-05-06T05:13:02.656Z,1020.71
2023-05-06T05:14:07.244Z,1020.71
2023-05-06T05:15:11.837Z,1020.71
2023-05-06T05:16:15.910Z,1020.69
2023-05-06T05:17:20.273Z,1020.66
2023-05-06T05:18:24.582Z,1020.66
2023-05-06T05:19:29.088Z,1020.70
2023-05-06T05:20:33.018Z,1020.71
2023-05-06T05:21:37.350Z,1020.68
2023-05-06T05:22:41.944Z,1020.68
2023-05-06T05:23:46.024Z,1020.72
2023-05-06T05:24:50.374Z,1020.72
2023-05-06T05:25:54.712Z,1020.75
2023-05-06T05:26:59.042Z,1020.79
2023-05-06T05:28:03.890Z,1020.79
2023-05-06T05:29:07.732Z,1020.83
2023-05-06T05:30:12.317Z,1020.82
2023-05-06T05:31:16.682Z,1020.87
2023-05-06T05:32:21.063Z,1020.86
2023-05-06T05:33:25.140Z,1020.88
2023-05-06T05:34:29.682Z,1020.85
2023-05-06T05:35:30.082Z,1020.86
2023-05-06T05:36:34.159Z,1020.88
2023-05-06T05:37:38.497Z,1020.83
2023-05-06T05:38:42.844Z,1020.88
2023-05-06T05:39:47.191Z,1020.85
2023-05-06T05:40:51.271Z,1020.88
2023-05-06T05:41:55.860Z,1020.86
2023-05-06T05:42:59.961Z,1020.89
2023-05-06T05:44:04.553Z,1020.85
2023-05-06T05:45:08.866Z,1020.83
2023-05-06T05:46:13.282Z,1020.87
2023-05-06T05:47:17.567Z,1020.90
2023-05-06T05:48:22.140Z,1020.92
2023-05-06T05:49:26.491Z,1020.93
2023-05-06T05:50:30.667Z,1020.95
2023-05-06T05:51:34.906Z,1020.99
2023-05-06T05:52:38.992Z,1020.99
2023-05-06T05:53:43.583Z,1021.07
2023-05-06T05:54:47.924Z,1021.08
2023-05-06T05:55:52.012Z,1021.08
2023-05-06T05:56:56.841Z,1021.11
2023-05-06T05:58:00.941Z,1021.06
2023-05-06T05:59:05.034Z,1021.12
2023-05-06T06:00:10.218Z,1021.10
2023-05-06T06:01:13.704Z,1021.10
2023-05-06T06:02:18.076Z,1021.02
2023-05-06T06:03:22.740Z,1021.07
2023-05-06T06:04:27.015Z,1021.06
2023-05-06T06:05:27.390Z,1021.09
2023-05-06T06:06:31.528Z,1021.08
2023-05-06T06:07:35.812Z,1021.14
2023-05-06T06:08:40.101Z,1021.13
2023-05-06T06:09:44.728Z,1021.12
2023-05-06T06:10:48.796Z,1021.14
2023-05-06T06:11:52.891Z,1021.16
2023-05-06T06:12:57.233Z,1021.12
2023-05-06T06:14:01.813Z,1021.12
2023-05-06T06:15:06.205Z,1021.14
2023-05-06T06:16:10.558Z,1021.18
2023-05-06T06:17:14.585Z,1021.15
2023-05-06T06:18:19.421Z,1021.20
2023-05-06T06:19:23.259Z,1021.15
2023-05-06T06:20:27.847Z,1021.13
2023-05-06T06:21:31.950Z,1021.14
2023-05-06T06:22:36.302Z,1021.15
2023-05-06T06:23:40.629Z,1021.14
2023-05-06T06:24:45.244Z,1021.16
2023-05-06T06:25:49.587Z,1021.15
2023-05-06T06:26:54.180Z,1021.21
2023-05-06T06:27:58.504Z,1021.21
2023-05-06T06:29:02.603Z,1021.22
2023-05-06T06:30:06.922Z,1021.29
2023-05-06T06:31:11.051Z,1021.29
2023-05-06T06:32:15.342Z,1021.27
2023-05-06T06:33:19.684Z,1021.33
2023-05-06T06:34:24.279Z,1021.33
2023-05-06T06:35:29.880Z,1021.34
2023-05-06T06:36:33.967Z,1021.33
2023-05-06T06:37:38.026Z,1021.35
2023-05-06T06:38:42.719Z,1021.33
2023-05-06T06:39:46.964Z,1021.31
2023-05-06T06:40:51.331Z,1021.30
2023-05-06T06:41:53.013Z,1021.33
2023-05-06T06:43:00.357Z,1021.35
2023-05-06T06:44:04.702Z,1021.39
2023-05-06T06:45:09.682Z,1021.36
2023-05-06T06:46:13.121Z,1021.36
2023-05-06T06:47:17.696Z,1021.44
2023-05-06T06:48:22.046Z,1021.41
2023-05-06T06:49:26.396Z,1021.45
2023-05-06T06:50:30.741Z,1021.45
2023-05-06T06:51:35.115Z,1021.51
2023-05-06T06:52:39.406Z,1021.48
2023-05-06T06:53:43.755Z,1021.52
2023-05-06T06:54:48.446Z,1021.52
2023-05-06T06:55:52.168Z,1021.51
2023-05-06T06:56:56.774Z,1021.50
2023-05-06T06:58:01.090Z,1021.51
2023-05-06T06:59:05.477Z,1021.51
2023-05-06T07:00:09.517Z,1021.51
2023-05-06T07:01:13.923Z,1021.47
2023-05-06T07:02:18.460Z,1021.49
2023-05-06T07:03:22.799Z,1021.50
2023-05-06T07:04:26.938Z,1021.47
2023-05-06T07:05:33.102Z,1021.42
2023-05-06T07:06:37.203Z,1021.45
2023-05-06T07:07:41.791Z,1021.44
2023-05-06T07:08:45.878Z,1021.43
2023-05-06T07:09:50.209Z,1021.45
2023-05-06T07:10:54.905Z,1021.46
2023-05-06T07:11:59.157Z,1021.45
2023-05-06T07:13:03.524Z,1021.41
2023-05-06T07:14:07.562Z,1021.45
2023-05-06T07:15:12.154Z,1021.41
2023-05-06T07:16:16.509Z,1021.45
2023-05-06T07:17:20.636Z,1021.46
2023-05-06T07:18:25.158Z,1021.49
2023-05-06T07:19:29.731Z,1021.49
2023-05-06T07:20:34.079Z,1021.48
2023-05-06T07:21:38.181Z,1021.55
2023-05-06T07:22:42.508Z,1021.57
2023-05-06T07:23:46.612Z,1021.57
2023-05-06T07:24:50.935Z,1021.55
2023-05-06T07:25:55.262Z,1021.58
2023-05-06T07:26:59.670Z,1021.60
2023-05-06T07:28:04.220Z,1021.60
2023-05-06T07:29:08.533Z,1021.55
2023-05-06T07:30:13.099Z,1021.57
2023-05-06T07:31:17.221Z,1021.55
2023-05-06T07:32:21.551Z,1021.54
2023-05-06T07:33:25.903Z,1021.49
2023-05-06T07:34:30.569Z,1021.58
2023-05-06T07:35:36.169Z,1021.55
2023-05-06T07:36:40.315Z,1021.58
2023-05-06T07:37:44.829Z,1021.56
2023-05-06T07:38:48.663Z,1021.59
2023-05-06T07:39:53.248Z,1021.58
2023-05-06T07:40:57.597Z,1021.58
2023-05-06T07:42:02.051Z,1021.61
2023-05-06T07:43:06.019Z,1021.57
2023-05-06T07:44:10.374Z,1021.61
2023-05-06T07:45:14.959Z,1021.62
2023-05-06T07:46:19.634Z,1021.63
2023-05-06T07:47:23.958Z,1021.61
2023-05-06T07:48:27.776Z,1021.60
2023-05-06T07:49:32.350Z,1021.58
2023-05-06T07:50:36.466Z,1021.60
2023-05-06T07:51:40.779Z,1021.61
2023-05-06T07:52:45.392Z,1021.62
2023-05-06T07:53:49.470Z,1021.64
2023-05-06T07:54:53.801Z,1021.67
2023-05-06T07:55:58.409Z,1021.66
2023-05-06T07:57:02.501Z,1021.71
2023-05-06T07:58:06.955Z,1021.68
2023-05-06T07:59:11.175Z,1021.70
2023-05-06T08:00:15.792Z,1021.72
2023-05-06T08:01:20.115Z,1021.73
2023-05-06T08:02:24.547Z,1021.75
2023-05-06T08:03:28.766Z,1021.74
2023-05-06T08:04:33.458Z,1021.80
2023-05-06T08:05:38.776Z,1021.82
2023-05-06T08:06:42.852Z,1021.76
2023-05-06T08:07:49.949Z,1021.84
2023-05-06T08:08:52.064Z,1021.75
2023-05-06T08:09:51.193Z,1021.77
2023-05-06T08:10:55.792Z,1021.78
2023-05-06T08:12:00.146Z,1021.81
2023-05-06T08:13:04.496Z,1021.85
2023-05-06T08:14:08.832Z,1021.86
2023-05-06T08:15:13.334Z,1021.77
2023-05-06T08:16:17.797Z,1021.75
2023-05-06T08:17:21.900Z,1021.78
2023-05-06T08:18:26.178Z,1021.79
2023-05-06T08:19:30.478Z,1021.77
2023-05-06T08:20:34.813Z,1021.78
2023-05-06T08:21:39.163Z,1021.78
2023-05-06T08:22:43.517Z,1021.78
2023-05-06T08:23:47.578Z,1021.79
2023-05-06T08:24:52.425Z,1021.81
2023-05-06T08:25:56.529Z,1021.88
2023-05-06T08:27:00.621Z,1021.87
2023-05-06T08:28:05.210Z,1021.87
2023-05-06T08:29:09.543Z,1021.90
2023-05-06T08:30:13.705Z,1021.87
2023-05-06T08:31:15.772Z,1021.87
2023-05-06T08:32:23.261Z,1021.92
2023-05-06T08:33:27.702Z,1021.92
2023-05-06T08:34:32.008Z,1021.89
2023-05-06T08:35:35.599Z,1021.95
2023-05-06T08:36:36.482Z,1021.95
2023-05-06T08:37:40.302Z,1021.98
2023-05-06T08:38:42.275Z,1021.98
2023-05-06T08:39:49.372Z,1021.96
2023-05-06T08:40:53.747Z,1021.94
2023-05-06T08:41:58.322Z,1022.02
2023-05-06T08:43:02.422Z,1021.96
2023-05-06T08:44:07.029Z,1021.97
2023-05-06T08:45:11.783Z,1021.94
2023-05-06T08:46:16.009Z,1021.92
2023-05-06T08:47:18.991Z,1021.97
2023-05-06T08:48:22.224Z,1021.97
2023-05-06T08:49:29.543Z,1021.97
2023-05-06T08:50:33.877Z,1021.95
2023-05-06T08:51:38.455Z,1021.95
2023-05-06T08:52:40.746Z,1021.98
2023-05-06T08:53:42.593Z,1021.98
2023-05-06T08:54:46.928Z,1021.98
2023-05-06T08:55:51.517Z,1021.93
2023-05-06T08:56:55.856Z,1021.90
2023-05-06T08:57:59.934Z,1021.88
2023-05-06T08:59:04.268Z,1021.94
2023-05-06T09:00:08.602Z,1021.91
2023-05-06T09:01:12.973Z,1021.92
2023-05-06T09:02:17.400Z,1021.87
2023-05-06T09:03:20.360Z,1021.87
2023-05-06T09:04:22.599Z,1021.85
2023-05-06T09:05:26.956Z,1021.85
2023-05-06T09:06:28.564Z,1021.85
2023-05-06T09:07:32.917Z,1021.86
2023-05-06T09:08:37.259Z,1021.88
2023-05-06T09:09:41.324Z,1021.84
2023-05-06T09:10:45.659Z,1021.85
2023-05-06T09:11:50.286Z,1021.87
2023-05-06T09:12:54.380Z,1021.82
2023-05-06T09:13:58.710Z,1021.83
2023-05-06T09:15:03.289Z,1021.84
2023-05-06T09:16:07.386Z,1021.86
2023-05-06T09:17:12.251Z,1021.82
2023-05-06T09:18:16.577Z,1021.89
2023-05-06T09:19:20.443Z,1021.86
2023-05-06T09:20:24.785Z,1021.85
2023-05-06T09:21:29.375Z,1021.87
2023-05-06T09:22:33.478Z,1021.90
2023-05-06T09:23:37.815Z,1021.86
2023-05-06T09:24:42.168Z,1021.85
2023-05-06T09:25:46.797Z,1021.82
2023-05-06T09:26:52.135Z,1021.82
2023-05-06T09:27:56.208Z,1021.79
2023-05-06T09:29:00.590Z,1021.78
2023-05-06T09:30:05.661Z,1021.77
2023-05-06T09:31:05.113Z,1021.79
2023-05-06T09:32:06.808Z,1021.78
2023-05-06T09:33:11.588Z,1021.77
2023-05-06T09:34:18.973Z,1021.68
2023-05-06T09:35:22.974Z,1021.66
2023-05-06T09:36:23.085Z,1021.68
2023-05-06T09:37:27.685Z,1021.65
2023-05-06T09:38:31.750Z,1021.70
2023-05-06T09:39:33.844Z,1021.67
2023-05-06T09:40:41.223Z,1021.71
2023-05-06T09:41:45.571Z,1021.69
2023-05-06T09:42:49.672Z,1021.70
2023-05-06T09:43:54.273Z,1021.70
2023-05-06T09:45:00.639Z,1021.70
2023-05-06T09:46:02.961Z,1021.64
2023-05-06T09:47:06.984Z,1021.67
2023-05-06T09:48:11.897Z,1021.71
2023-05-06T09:49:16.850Z,1021.75
2023-05-06T09:50:16.325Z,1021.74
2023-05-06T09:51:20.321Z,1021.65
2023-05-06T09:52:24.643Z,1021.70
2023-05-06T09:53:28.986Z,1021.70
2023-05-06T09:54:33.094Z,1021.72
2023-05-06T09:55:37.686Z,1021.71
2023-05-06T09:56:42.007Z,1021.74
2023-05-06T09:57:46.080Z,1021.71
2023-05-06T09:58:50.600Z,1021.69
2023-05-06T09:59:55.486Z,1021.74
2023-05-06T10:00:59.580Z,1021.68
2023-05-06T10:02:03.728Z,1021.66
2023-05-06T10:03:09.545Z,1021.67
2023-05-06T10:04:08.496Z,1021.68
2023-05-06T10:05:13.318Z,1021.71
2023-05-06T10:06:12.959Z,1021.72
2023-05-06T10:07:17.041Z,1021.73
2023-05-06T10:08:21.650Z,1021.71
2023-05-06T10:09:26.787Z,1021.75
2023-05-06T10:10:26.166Z,1021.74
2023-05-06T10:11:30.492Z,1021.72
2023-05-06T10:12:34.615Z,1021.71
2023-05-06T10:13:39.185Z,1021.68
2023-05-06T10:14:43.263Z,1021.66
2023-05-06T10:15:47.957Z,1021.71
2023-05-06T10:16:52.206Z,1021.69
2023-05-06T10:17:56.603Z,1021.65
2023-05-06T10:19:00.653Z,1021.65
2023-05-06T10:20:05.253Z,1021.67
2023-05-06T10:21:09.692Z,1021.65
2023-05-06T10:22:13.673Z,1021.67
2023-05-06T10:23:18.267Z,1021.68
2023-05-06T10:24:22.863Z,1021.70
2023-05-06T10:25:26.952Z,1021.72
2023-05-06T10:26:31.074Z,1021.78
2023-05-06T10:27:35.803Z,1021.73
2023-05-06T10:28:40.141Z,1021.68
2023-05-06T10:29:44.489Z,1021.70
2023-05-06T10:30:48.577Z,1021.68
2023-05-06T10:31:55.279Z,1021.72
2023-05-06T10:32:53.324Z,1021.68
2023-05-06T10:33:57.576Z,1021.66
2023-05-06T10:35:01.724Z,1021.55
2023-05-06T10:36:01.793Z,1021.58
2023-05-06T10:37:06.290Z,1021.51
2023-05-06T10:38:10.477Z,1021.52
2023-05-06T10:39:15.086Z,1021.53
2023-05-06T10:40:19.473Z,1021.46
2023-05-06T10:41:23.963Z,1021.48
2023-05-06T10:42:25.890Z,1021.45
2023-05-06T10:43:32.961Z,1021.46
2023-05-06T10:44:34.915Z,1021.42
2023-05-06T10:45:42.330Z,1021.50
2023-05-06T10:46:46.612Z,1021.40
2023-05-06T10:47:48.355Z,1021.48
2023-05-06T10:48:55.665Z,1021.45
2023-05-06T10:50:00.064Z,1021.49
2023-05-06T10:51:04.384Z,1021.50
2023-05-06T10:52:06.099Z,1021.46
2023-05-06T10:53:11.873Z,1021.44
2023-05-06T10:54:13.914Z,1021.43
2023-05-06T10:55:18.419Z,1021.45
2023-05-06T10:56:19.334Z,1021.42
2023-05-06T10:57:26.526Z,1021.42
2023-05-06T10:58:28.554Z,1021.38
2023-05-06T10:59:35.674Z,1021.39
2023-05-06T11:00:40.005Z,1021.38
2023-05-06T11:01:44.341Z,1021.28
2023-05-06T11:02:47.749Z,1021.29
2023-05-06T11:03:53.690Z,1021.32
2023-05-06T11:04:58.015Z,1021.34
2023-05-06T11:05:58.711Z,1021.31
2023-05-06T11:07:03.066Z,1021.32
2023-05-06T11:08:07.124Z,1021.28
2023-05-06T11:09:12.076Z,1021.30
2023-05-06T11:10:15.812Z,1021.29
2023-05-06T11:11:20.144Z,1021.30
2023-05-06T11:12:32.570Z,1021.32
2023-05-06T11:13:27.565Z,1021.28
2023-05-06T11:14:29.289Z,1021.26
2023-05-06T11:15:34.063Z,1021.26
2023-05-06T11:16:37.555Z,1021.30
2023-05-06T11:17:51.103Z,1021.30
2023-05-06T11:18:45.400Z,1021.29
2023-05-06T11:19:49.858Z,1021.27
2023-05-06T11:20:48.147Z,1021.26
2023-05-06T11:21:52.495Z,1021.27
2023-05-06T11:23:00.191Z,1021.21
2023-05-06T11:23:58.828Z,1021.20
2023-05-06T11:25:03.927Z,1021.19
2023-05-06T11:26:07.931Z,1021.20
2023-05-06T11:27:12.278Z,1021.22
2023-05-06T11:28:16.627Z,1021.19
2023-05-06T11:29:20.973Z,1021.25
2023-05-06T11:30:25.077Z,1021.28
2023-05-06T11:31:29.835Z,1021.31
2023-05-06T11:32:31.755Z,1021.28
2023-05-06T11:33:34.173Z,1021.32
2023-05-06T11:34:38.803Z,1021.30
2023-05-06T11:35:40.488Z,1021.28
2023-05-06T11:36:43.607Z,1021.29
2023-05-06T11:37:48.429Z,1021.23
2023-05-06T11:38:53.135Z,1021.19
2023-05-06T11:39:56.708Z,1021.18
2023-05-06T11:41:01.166Z,1021.16
2023-05-06T11:42:05.677Z,1021.16
2023-05-06T11:43:06.628Z,1021.10
2023-05-06T11:44:11.690Z,1021.12
2023-05-06T11:45:18.777Z,1021.13
2023-05-06T11:46:20.539Z,1021.11
2023-05-06T11:47:28.232Z,1021.18
2023-05-06T11:48:32.543Z,1021.15
2023-05-06T11:49:36.944Z,1021.15
2023-05-06T11:50:42.216Z,1021.12
2023-05-06T11:51:41.084Z,1021.13
2023-05-06T11:52:45.684Z,1021.07
2023-05-06T11:53:51.051Z,1021.05
2023-05-06T11:54:50.274Z,1021.05
2023-05-06T11:55:54.265Z,1021.08
2023-05-06T11:56:58.698Z,1021.04
2023-05-06T11:58:03.190Z,1021.05
2023-05-06T11:59:07.538Z,1021.07
2023-05-06T12:00:11.817Z,1021.07
2023-05-06T12:01:16.235Z,1021.07
2023-05-06T12:02:20.896Z,1021.08
2023-05-06T12:06:06.550Z,1021.08
2023-05-06T12:07:11.934Z,1021.08
2023-05-06T12:08:26.601Z,1021.05
2023-05-06T12:09:20.626Z,1021.05
2023-05-06T12:10:24.705Z,1021.06
2023-05-06T12:11:29.311Z,1021.07
2023-05-06T12:12:33.718Z,1021.00
2023-05-06T12:13:38.001Z,1021.05
2023-05-06T12:14:42.101Z,1021.05
2023-05-06T12:15:46.424Z,1021.02
2023-05-06T12:16:50.776Z,1021.03
2023-05-06T12:17:55.403Z,1021.01
2023-05-06T12:18:59.442Z,1021.04
2023-05-06T12:20:03.797Z,1021.05
2023-05-06T12:21:08.378Z,1021.06
2023-05-06T12:22:12.470Z,1021.01
2023-05-06T12:23:20.201Z,1021.02
2023-05-06T12:24:19.633Z,1021.03
2023-05-06T12:25:23.945Z,1021.04
2023-05-06T12:26:28.014Z,1021.02
2023-05-06T12:27:32.362Z,1020.99
2023-05-06T12:28:36.790Z,1020.98
2023-05-06T12:29:41.033Z,1020.95
2023-05-06T12:30:45.897Z,1020.97
2023-05-06T12:31:50.035Z,1020.98
2023-05-06T12:32:52.210Z,1020.99
2023-05-06T12:33:58.105Z,1020.99
2023-05-06T12:34:59.724Z,1020.98
2023-05-06T12:35:59.866Z,1020.98
2023-05-06T12:37:04.443Z,1021.00
2023-05-06T12:38:08.864Z,1021.04
2023-05-06T12:39:12.954Z,1021.00
2023-05-06T12:40:20.287Z,1021.00
2023-05-06T12:41:16.346Z,1021.02
2023-05-06T12:42:23.421Z,1021.00
2023-05-06T12:43:25.391Z,1021.05
2023-05-06T12:44:35.477Z,1021.00
2023-05-06T12:45:32.788Z,1021.04
2023-05-06T12:46:37.056Z,1021.02
2023-05-06T12:47:41.934Z,1020.97
2023-05-06T12:48:46.006Z,1020.98
2023-05-06T12:49:50.118Z,1020.98
2023-05-06T12:50:54.709Z,1020.97
2023-05-06T12:51:59.023Z,1020.95
2023-05-06T12:53:03.395Z,1021.03
2023-05-06T12:54:07.744Z,1021.00
2023-05-06T12:55:11.863Z,1021.03
2023-05-06T12:56:16.198Z,1021.01
2023-05-06T12:57:18.194Z,1021.02
2023-05-06T12:58:25.276Z,1021.02
2023-05-06T12:59:29.635Z,1021.01
2023-05-06T13:00:34.155Z,1021.03
2023-05-06T13:01:38.765Z,1020.99